sensor_id;sensor_type;location;lat;lon;timestamp;temperature;humidity
3794;DHT22;1912;51.358;12.282;2023-05-10T03:45:27;10.70;1.00
3794;DHT22;1912;51.358;12.282;2023-05-10T03:47:53;10.70;1.00
3794;DHT22;1912;51.358;12.282;2023-05-10T03:50:19;10.70;1.00
3794;DHT22;1912;51.358;12.282;2023-05-10T03:52:45;10.70;1.00
3794;DHT22;1912;51.358;12.282;2023-05-10T03:55:11;10.80;1.00
3794;DHT22;1912;51.358;12.282;2023-05-10T03:57:37;10.80;1.00
3794;DHT22;1912;51.358;12.282;2023-05-10T04:00:03;10.80;1.00
3794;DHT22;1912;51.358;12.282;2023-05-10T04:02:29;10.90;1.00
3794;DHT22;1912;51.358;12.282;2023-05-10T04:04:55;10.90;1.00
3794;DHT22;1912;51.358;12.282;2023-05-10T04:07:21;11.00;1.00
3794;DHT22;1912;51.358;12.282;2023-05-10T04:09:47;11.10;1.00
3794;DHT22;1912;51.358;12.282;2023-05-10T04:12:13;11.10;1.00
3794;DHT22;1912;51.358;12.282;2023-05-10T04:14:38;11.10;1.00
3794;DHT22;1912;51.358;12.282;2023-05-10T04:17:04;11.20;1.00
3794;DHT22;1912;51.358;12.282;2023-05-10T04:19:31;11.20;1.00
3794;DHT22;1912;51.358;12.282;2023-05-10T04:21:57;11.30;1.00
3794;DHT22;1912;51.358;12.282;2023-05-10T04:24:24;11.30;1.00
3794;DHT22;1912;51.358;12.282;2023-05-10T04:26:49;11.40;1.00
3794;DHT22;1912;51.358;12.282;2023-05-10T04:29:15;11.40;1.00
3794;DHT22;1912;51.358;12.282;2023-05-10T04:31:41;11.50;1.00
3794;DHT22;1912;51.358;12.282;2023-05-10T04:34:06;11.60;1.00
3794;DHT22;1912;51.358;12.282;2023-05-10T04:36:32;11.70;1.00
3794;DHT22;1912;51.358;12.282;2023-05-10T04:39:00;11.70;1.00
3794;DHT22;1912;51.358;12.282;2023-05-10T04:41:26;11.80;1.00
3794;DHT22;1912;51.358;12.282;2023-05-10T04:43:52;11.90;1.00
3794;DHT22;1912;51.358;12.282;2023-05-10T04:46:17;12.00;1.00
3794;DHT22;1912;51.358;12.282;2023-05-10T04:48:43;12.10;1.00
3794;DHT22;1912;51.358;12.282;2023-05-10T04:51:08;12.20;1.00
3794;DHT22;1912;51.358;12.282;2023-05-10T04:53:34;12.20;1.00
3794;DHT22;1912;51.358;12.282;2023-05-10T04:56:00;12.30;1.00
3794;DHT22;1912;51.358;12.282;2023-05-10T04:58:25;12.50;1.00
3794;DHT22;1912;51.358;12.282;2023-05-10T05:00:51;12.50;1.00
3794;DHT22;1912;51.358;12.282;2023-05-10T05:03:17;12.60;1.00
3794;DHT22;1912;51.358;12.282;2023-05-10T05:05:43;12.70;1.00
3794;DHT22;1912;51.358;12.282;2023-05-10T05:08:09;12.80;1.00
3794;DHT22;1912;51.358;12.282;2023-05-10T05:10:35;13.00;1.00
3794;DHT22;1912;51.358;12.282;2023-05-10T05:13:01;13.10;1.00
3794;DHT22;1912;51.358;12.282;2023-05-10T05:15:26;13.20;1.00
3794;DHT22;1912;51.358;12.282;2023-05-10T05:17:52;13.30;1.00
3794;DHT22;1912;51.358;12.282;2023-05-10T05:20:18;13.60;1.00
3794;DHT22;1912;51.358;12.282;2023-05-10T05:22:44;13.90;1.00
3794;DHT22;1912;51.358;12.282;2023-05-10T05:25:10;14.30;1.00
3794;DHT22;1912;51.358;12.282;2023-05-10T05:27:36;14.80;1.00
3794;DHT22;1912;51.358;12.282;2023-05-10T05:30:02;15.00;1.00
3794;DHT22;1912;51.358;12.282;2023-05-10T05:32:29;15.30;1.00
3794;DHT22;1912;51.358;12.282;2023-05-10T05:34:55;15.70;1.00
3794;DHT22;1912;51.358;12.282;2023-05-10T05:37:21;16.00;1.00
3794;DHT22;1912;51.358;12.282;2023-05-10T05:39:47;16.20;1.00
3794;DHT22;1912;51.358;12.282;2023-05-10T05:42:14;16.00;1.00
3794;DHT22;1912;51.358;12.282;2023-05-10T05:44:41;15.90;1.00
3794;DHT22;1912;51.358;12.282;2023-05-10T05:47:06;15.60;1.00
3794;DHT22;1912;51.358;12.282;2023-05-10T05:49:32;15.30;1.00
3794;DHT22;1912;51.358;12.282;2023-05-10T05:51:59;15.20;1.00
3794;DHT22;1912;51.358;12.282;2023-05-10T05:54:29;14.90;1.00
3794;DHT22;1912;51.358;12.282;2023-05-10T05:56:56;14.90;1.00
3794;DHT22;1912;51.358;12.282;2023-05-10T05:59:22;14.90;1.00
3794;DHT22;1912;51.358;12.282;2023-05-10T06:01:49;14.90;1.00
3794;DHT22;1912;51.358;12.282;2023-05-10T06:04:15;14.90;1.00
3794;DHT22;1912;51.358;12.282;2023-05-10T06:06:41;14.90;1.00
3794;DHT22;1912;51.358;12.282;2023-05-10T06:09:07;14.90;1.00
3794;DHT22;1912;51.358;12.282;2023-05-10T06:11:33;14.90;1.00
3794;DHT22;1912;51.358;12.282;2023-05-10T06:13:59;14.90;1.00
3794;DHT22;1912;51.358;12.282;2023-05-10T06:16:25;14.90;1.00
3794;DHT22;1912;51.358;12.282;2023-05-10T06:18:51;14.90;1.00
3794;DHT22;1912;51.358;12.282;2023-05-10T06:21:17;15.00;1.00
3794;DHT22;1912;51.358;12.282;2023-05-10T06:23:42;15.10;1.00
3794;DHT22;1912;51.358;12.282;2023-05-10T06:26:09;15.30;1.00
3794;DHT22;1912;51.358;12.282;2023-05-10T06:28:35;15.40;1.00
3794;DHT22;1912;51.358;12.282;2023-05-10T06:31:03;15.40;1.00
3794;DHT22;1912;51.358;12.282;2023-05-10T06:33:29;15.50;1.00
3794;DHT22;1912;51.358;12.282;2023-05-10T06:35:55;15.50;1.00
3794;DHT22;1912;51.358;12.282;2023-05-10T06:38:21;15.70;1.00
3794;DHT22;1912;51.358;12.282;2023-05-10T06:40:47;15.90;1.00
3794;DHT22;1912;51.358;12.282;2023-05-10T06:43:12;15.80;1.00
3794;DHT22;1912;51.358;12.282;2023-05-10T06:45:38;15.90;1.00
3794;DHT22;1912;51.358;12.282;2023-05-10T06:48:04;15.90;1.00
3794;DHT22;1912;51.358;12.282;2023-05-10T06:50:29;15.80;1.00
3794;DHT22;1912;51.358;12.282;2023-05-10T06:52:55;15.70;1.00
3794;DHT22;1912;51.358;12.282;2023-05-10T06:55:21;15.70;1.00
3794;DHT22;1912;51.358;12.282;2023-05-10T06:57:47;15.80;1.00
3794;DHT22;1912;51.358;12.282;2023-05-10T07:00:13;15.90;1.00
3794;DHT22;1912;51.358;12.282;2023-05-10T07:02:40;16.00;1.00
3794;DHT22;1912;51.358;12.282;2023-05-10T07:05:06;16.00;1.00
3794;DHT22;1912;51.358;12.282;2023-05-10T07:07:32;16.00;1.00
3794;DHT22;1912;51.358;12.282;2023-05-10T07:09:57;16.20;1.00
3794;DHT22;1912;51.358;12.282;2023-05-10T07:12:24;16.30;1.00
3794;DHT22;1912;51.358;12.282;2023-05-10T07:14:50;16.60;1.00
3794;DHT22;1912;51.358;12.282;2023-05-10T07:17:15;17.00;1.00
3794;DHT22;1912;51.358;12.282;2023-05-10T07:19:41;17.10;1.00
3794;DHT22;1912;51.358;12.282;2023-05-10T07:22:07;17.10;1.00
3794;DHT22;1912;51.358;12.282;2023-05-10T07:24:33;17.00;1.00
3794;DHT22;1912;51.358;12.282;2023-05-10T07:26:59;17.00;1.00
3794;DHT22;1912;51.358;12.282;2023-05-10T07:29:25;17.00;1.00
3794;DHT22;1912;51.358;12.282;2023-05-10T07:31:51;16.90;1.00
3794;DHT22;1912;51.358;12.282;2023-05-10T07:34:16;16.70;1.00
3794;DHT22;1912;51.358;12.282;2023-05-10T07:36:42;16.70;1.00
3794;DHT22;1912;51.358;12.282;2023-05-10T07:39:08;16.60;1.00
3794;DHT22;1912;51.358;12.282;2023-05-10T07:41:33;16.70;1.00
3794;DHT22;1912;51.358;12.282;2023-05-10T07:43:59;16.90;1.00
3794;DHT22;1912;51.358;12.282;2023-05-10T07:46:25;16.90;1.00
3794;DHT22;1912;51.358;12.282;2023-05-10T07:48:50;16.60;1.00
3794;DHT22;1912;51.358;12.282;2023-05-10T07:51:16;16.60;1.00
3794;DHT22;1912;51.358;12.282;2023-05-10T07:53:42;16.80;1.00
3794;DHT22;1912;51.358;12.282;2023-05-10T07:56:25;16.90;1.00
3794;DHT22;1912;51.358;12.282;2023-05-10T07:59:03;16.80;1.00
3794;DHT22;1912;51.358;12.282;2023-05-10T08:01:33;16.60;1.00
3794;DHT22;1912;51.358;12.282;2023-05-10T08:04:00;16.70;1.00
3794;DHT22;1912;51.358;12.282;2023-05-10T08:06:26;16.70;1.00
3794;DHT22;1912;51.358;12.282;2023-05-10T08:08:54;16.80;1.00
3794;DHT22;1912;51.358;12.282;2023-05-10T08:11:20;16.60;1.00
3794;DHT22;1912;51.358;12.282;2023-05-10T08:13:47;16.50;1.00
3794;DHT22;1912;51.358;12.282;2023-05-10T08:16:13;16.50;1.00
3794;DHT22;1912;51.358;12.282;2023-05-10T08:18:39;16.40;1.00
3794;DHT22;1912;51.358;12.282;2023-05-10T08:21:05;16.50;1.00
3794;DHT22;1912;51.358;12.282;2023-05-10T08:23:31;16.30;1.00
3794;DHT22;1912;51.358;12.282;2023-05-10T08:25:57;16.20;1.00
3794;DHT22;1912;51.358;12.282;2023-05-10T08:28:23;16.10;1.00
3794;DHT22;1912;51.358;12.282;2023-05-10T08:30:50;16.10;1.00
3794;DHT22;1912;51.358;12.282;2023-05-10T08:33:17;16.00;1.00
3794;DHT22;1912;51.358;12.282;2023-05-10T08:35:43;15.90;1.00
3794;DHT22;1912;51.358;12.282;2023-05-10T08:38:09;15.90;1.00
3794;DHT22;1912;51.358;12.282;2023-05-10T08:40:36;15.80;1.00
3794;DHT22;1912;51.358;12.282;2023-05-10T08:43:05;15.70;1.00
3794;DHT22;1912;51.358;12.282;2023-05-10T08:45:39;15.60;1.00
3794;DHT22;1912;51.358;12.282;2023-05-10T08:48:08;15.60;1.00
3794;DHT22;1912;51.358;12.282;2023-05-10T08:50:39;15.40;1.00
3794;DHT22;1912;51.358;12.282;2023-05-10T08:53:12;15.40;1.00
3794;DHT22;1912;51.358;12.282;2023-05-10T08:55:39;15.40;1.00
3794;DHT22;1912;51.358;12.282;2023-05-10T08:58:08;15.20;1.00
3794;DHT22;1912;51.358;12.282;2023-05-10T09:00:35;15.10;1.00
3794;DHT22;1912;51.358;12.282;2023-05-10T09:03:03;15.20;1.00
3794;DHT22;1912;51.358;12.282;2023-05-10T09:05:30;15.10;1.00
3794;DHT22;1912;51.358;12.282;2023-05-10T09:07:55;14.90;1.00
3794;DHT22;1912;51.358;12.282;2023-05-10T09:10:22;14.70;1.00
3794;DHT22;1912;51.358;12.282;2023-05-10T09:12:51;14.60;1.00
3794;DHT22;1912;51.358;12.282;2023-05-10T09:15:17;14.40;1.00
3794;DHT22;1912;51.358;12.282;2023-05-10T09:17:45;14.20;1.00
3794;DHT22;1912;51.358;12.282;2023-05-10T09:20:11;14.10;1.00
3794;DHT22;1912;51.358;12.282;2023-05-10T09:22:36;14.10;1.00
3794;DHT22;1912;51.358;12.282;2023-05-10T09:27:41;14.10;1.00
3794;DHT22;1912;51.358;12.282;2023-05-10T09:30:10;13.90;1.00
3794;DHT22;1912;51.358;12.282;2023-05-10T09:32:45;13.90;1.00
3794;DHT22;1912;51.358;12.282;2023-05-10T09:35:16;13.80;1.00
3794;DHT22;1912;51.358;12.282;2023-05-10T09:37:46;13.90;1.00
3794;DHT22;1912;51.358;12.282;2023-05-10T09:40:15;13.90;1.00
3794;DHT22;1912;51.358;12.282;2023-05-10T09:42:50;13.80;1.00
3794;DHT22;1912;51.358;12.282;2023-05-10T09:45:31;13.80;1.00
3794;DHT22;1912;51.358;12.282;2023-05-10T09:47:58;13.80;1.00
3794;DHT22;1912;51.358;12.282;2023-05-10T09:50:25;13.80;1.00
3794;DHT22;1912;51.358;12.282;2023-05-10T09:52:56;13.90;1.00
3794;DHT22;1912;51.358;12.282;2023-05-10T09:55:41;14.10;1.00
3794;DHT22;1912;51.358;12.282;2023-05-10T09:58:12;14.00;1.00
3794;DHT22;1912;51.358;12.282;2023-05-10T10:00:40;14.00;1.00
3794;DHT22;1912;51.358;12.282;2023-05-10T10:03:21;14.10;1.00
3794;DHT22;1912;51.358;12.282;2023-05-10T10:05:48;14.00;1.00
3794;DHT22;1912;51.358;12.282;2023-05-10T10:08:15;14.10;1.00
3794;DHT22;1912;51.358;12.282;2023-05-10T10:10:42;14.20;1.00
3794;DHT22;1912;51.358;12.282;2023-05-10T10:13:10;14.30;1.00
3794;DHT22;1912;51.358;12.282;2023-05-10T10:15:36;14.30;1.00
3794;DHT22;1912;51.358;12.282;2023-05-10T10:18:02;14.30;1.00
3794;DHT22;1912;51.358;12.282;2023-05-10T10:20:29;14.30;1.00
3794;DHT22;1912;51.358;12.282;2023-05-10T10:22:55;14.40;1.00
3794;DHT22;1912;51.358;12.282;2023-05-10T10:25:21;14.50;1.00
3794;DHT22;1912;51.358;12.282;2023-05-10T10:30:48;14.40;1.00
3794;DHT22;1912;51.358;12.282;2023-05-10T10:33:51;14.30;1.00
3794;DHT22;1912;51.358;12.282;2023-05-10T10:36:22;14.30;1.00
3794;DHT22;1912;51.358;12.282;2023-05-10T10:41:36;14.30;1.00
3794;DHT22;1912;51.358;12.282;2023-05-10T10:52:39;14.30;1.00
3794;DHT22;1912;51.358;12.282;2023-05-10T10:55:13;14.30;1.00
3794;DHT22;1912;51.358;12.282;2023-05-10T10:57:48;14.30;1.00
3794;DHT22;1912;51.358;12.282;2023-05-10T11:02:49;14.30;1.00
3794;DHT22;1912;51.358;12.282;2023-05-10T11:07:56;14.40;1.00
3794;DHT22;1912;51.358;12.282;2023-05-10T11:10:24;14.30;1.00
3794;DHT22;1912;51.358;12.282;2023-05-10T11:13:03;14.30;1.00
3794;DHT22;1912;51.358;12.282;2023-05-10T11:15:38;14.40;1.00
3794;DHT22;1912;51.358;12.282;2023-05-10T11:20:44;14.50;1.00
3794;DHT22;1912;51.358;12.282;2023-05-10T11:23:13;14.40;1.00
3794;DHT22;1912;51.358;12.282;2023-05-10T11:25:45;14.50;1.00
3794;DHT22;1912;51.358;12.282;2023-05-10T11:28:12;14.60;1.00
3794;DHT22;1912;51.358;12.282;2023-05-10T11:30:39;14.60;1.00
3794;DHT22;1912;51.358;12.282;2023-05-10T11:33:06;14.70;1.00
3794;DHT22;1912;51.358;12.282;2023-05-10T11:35:38;14.70;1.00
3794;DHT22;1912;51.358;12.282;2023-05-10T11:38:08;14.70;1.00
3794;DHT22;1912;51.358;12.282;2023-05-10T11:40:35;14.80;1.00
3794;DHT22;1912;51.358;12.282;2023-05-10T11:43:02;14.90;1.00
3794;DHT22;1912;51.358;12.282;2023-05-10T11:45:31;15.00;1.00
3794;DHT22;1912;51.358;12.282;2023-05-10T11:47:58;15.00;1.00
3794;DHT22;1912;51.358;12.282;2023-05-10T11:50:25;15.00;1.00
3794;DHT22;1912;51.358;12.282;2023-05-10T11:52:55;15.10;1.00
3794;DHT22;1912;51.358;12.282;2023-05-10T11:55:22;15.10;1.00
3794;DHT22;1912;51.358;12.282;2023-05-10T11:57:52;15.00;1.00
3794;DHT22;1912;51.358;12.282;2023-05-10T12:00:18;14.90;1.00
3794;DHT22;1912;51.358;12.282;2023-05-10T12:02:45;15.10;1.00
3794;DHT22;1912;51.358;12.282;2023-05-10T12:05:10;15.40;1.00
3794;DHT22;1912;51.358;12.282;2023-05-10T12:07:36;15.30;1.00
3794;DHT22;1912;51.358;12.282;2023-05-10T12:10:12;15.20;1.00
3794;DHT22;1912;51.358;12.282;2023-05-10T12:12:46;15.40;1.00
3794;DHT22;1912;51.358;12.282;2023-05-10T12:15:19;15.40;1.00
3794;DHT22;1912;51.358;12.282;2023-05-10T12:17:50;15.40;1.00
3794;DHT22;1912;51.358;12.282;2023-05-10T12:20:20;15.40;1.00
3794;DHT22;1912;51.358;12.282;2023-05-10T12:22:52;15.40;1.00
3794;DHT22;1912;51.358;12.282;2023-05-10T12:25:23;15.40;1.00
3794;DHT22;1912;51.358;12.282;2023-05-10T12:27:55;15.40;1.00
3794;DHT22;1912;51.358;12.282;2023-05-10T12:30:25;15.50;1.00
3794;DHT22;1912;51.358;12.282;2023-05-10T12:33:00;15.50;1.00
3794;DHT22;1912;51.358;12.282;2023-05-10T12:35:30;15.60;1.00
3794;DHT22;1912;51.358;12.282;2023-05-10T12:37:56;15.70;1.00
3794;DHT22;1912;51.358;12.282;2023-05-10T12:40:22;15.70;1.00
3794;DHT22;1912;51.358;12.282;2023-05-10T12:42:47;15.60;1.00
3794;DHT22;1912;51.358;12.282;2023-05-10T12:45:14;15.70;1.00
3794;DHT22;1912;51.358;12.282;2023-05-10T12:47:39;15.70;1.00
3794;DHT22;1912;51.358;12.282;2023-05-10T12:50:05;15.70;1.00
3794;DHT22;1912;51.358;12.282;2023-05-10T12:52:31;15.90;1.00
3794;DHT22;1912;51.358;12.282;2023-05-10T12:54:58;15.90;1.00
3794;DHT22;1912;51.358;12.282;2023-05-10T12:57:24;16.00;1.00
3794;DHT22;1912;51.358;12.282;2023-05-10T12:59:50;15.90;1.00
3794;DHT22;1912;51.358;12.282;2023-05-10T13:02:16;15.90;1.00
3794;DHT22;1912;51.358;12.282;2023-05-10T13:04:44;15.90;1.00
3794;DHT22;1912;51.358;12.282;2023-05-10T13:07:10;15.70;1.00
3794;DHT22;1912;51.358;12.282;2023-05-10T13:09:36;15.80;1.00
3794;DHT22;1912;51.358;12.282;2023-05-10T13:12:01;15.80;1.00
3794;DHT22;1912;51.358;12.282;2023-05-10T13:14:27;15.70;1.00
3794;DHT22;1912;51.358;12.282;2023-05-10T13:16:53;15.70;1.00
3794;DHT22;1912;51.358;12.282;2023-05-10T13:19:19;15.60;1.00
3794;DHT22;1912;51.358;12.282;2023-05-10T13:21:45;15.60;1.00
3794;DHT22;1912;51.358;12.282;2023-05-10T13:24:11;15.60;1.00
3794;DHT22;1912;51.358;12.282;2023-05-10T13:26:39;15.30;1.00
3794;DHT22;1912;51.358;12.282;2023-05-10T13:29:06;15.00;1.00
3794;DHT22;1912;51.358;12.282;2023-05-10T13:31:32;14.80;1.00
3794;DHT22;1912;51.358;12.282;2023-05-10T13:33:57;14.70;1.00
3794;DHT22;1912;51.358;12.282;2023-05-10T13:36:23;14.60;1.00
3794;DHT22;1912;51.358;12.282;2023-05-10T13:38:48;14.50;1.00
3794;DHT22;1912;51.358;12.282;2023-05-10T13:41:14;14.50;1.00
3794;DHT22;1912;51.358;12.282;2023-05-10T13:43:40;14.50;1.00
3794;DHT22;1912;51.358;12.282;2023-05-10T13:46:05;14.40;1.00
3794;DHT22;1912;51.358;12.282;2023-05-10T13:48:31;14.50;1.00
3794;DHT22;1912;51.358;12.282;2023-05-10T13:50:57;14.50;1.00
3794;DHT22;1912;51.358;12.282;2023-05-10T13:53:23;14.60;1.00
3794;DHT22;1912;51.358;12.282;2023-05-10T13:55:48;14.60;1.00
3794;DHT22;1912;51.358;12.282;2023-05-10T13:58:14;14.60;1.00
3794;DHT22;1912;51.358;12.282;2023-05-10T14:00:40;14.60;1.00
3794;DHT22;1912;51.358;12.282;2023-05-10T14:03:05;14.60;1.00
3794;DHT22;1912;51.358;12.282;2023-05-10T14:05:32;14.60;1.00
3794;DHT22;1912;51.358;12.282;2023-05-10T14:07:57;14.60;1.00
3794;DHT22;1912;51.358;12.282;2023-05-10T14:10:23;14.70;1.00
3794;DHT22;1912;51.358;12.282;2023-05-10T14:12:50;14.80;1.00
3794;DHT22;1912;51.358;12.282;2023-05-10T14:15:15;14.80;1.00
3794;DHT22;1912;51.358;12.282;2023-05-10T14:17:41;14.80;1.00
3794;DHT22;1912;51.358;12.282;2023-05-10T14:20:07;14.70;1.00
3794;DHT22;1912;51.358;12.282;2023-05-10T14:22:33;14.70;1.00
3794;DHT22;1912;51.358;12.282;2023-05-10T14:24:59;14.70;1.00
3794;DHT22;1912;51.358;12.282;2023-05-10T14:27:25;14.80;1.00
3794;DHT22;1912;51.358;12.282;2023-05-10T14:29:51;14.80;1.00
3794;DHT22;1912;51.358;12.282;2023-05-10T14:32:18;14.80;1.00
3794;DHT22;1912;51.358;12.282;2023-05-10T14:34:44;14.80;1.00
3794;DHT22;1912;51.358;12.282;2023-05-10T14:37:13;14.80;1.00
3794;DHT22;1912;51.358;12.282;2023-05-10T14:39:39;14.90;1.00
3794;DHT22;1912;51.358;12.282;2023-05-10T14:42:05;14.90;1.00
3794;DHT22;1912;51.358;12.282;2023-05-10T14:44:31;14.90;1.00
3794;DHT22;1912;51.358;12.282;2023-05-10T14:46:56;14.80;1.00
3794;DHT22;1912;51.358;12.282;2023-05-10T14:49:22;14.80;1.00
3794;DHT22;1912;51.358;12.282;2023-05-10T14:51:50;14.80;1.00
3794;DHT22;1912;51.358;12.282;2023-05-10T14:54:16;14.90;1.00
3794;DHT22;1912;51.358;12.282;2023-05-10T14:56:42;14.90;1.00
3794;DHT22;1912;51.358;12.282;2023-05-10T14:59:08;15.00;1.00
3794;DHT22;1912;51.358;12.282;2023-05-10T15:01:34;15.10;1.00
3794;DHT22;1912;51.358;12.282;2023-05-10T15:04:06;15.10;1.00
3794;DHT22;1912;51.358;12.282;2023-05-10T15:06:33;15.10;1.00
3794;DHT22;1912;51.358;12.282;2023-05-10T15:09:01;15.20;1.00
3794;DHT22;1912;51.358;12.282;2023-05-10T15:11:27;15.10;1.00
3794;DHT22;1912;51.358;12.282;2023-05-10T15:13:53;15.10;1.00
3794;DHT22;1912;51.358;12.282;2023-05-10T15:16:18;15.10;1.00
3794;DHT22;1912;51.358;12.282;2023-05-10T15:18:44;15.10;1.00
3794;DHT22;1912;51.358;12.282;2023-05-10T15:21:11;15.00;1.00
3794;DHT22;1912;51.358;12.282;2023-05-10T15:23:36;15.00;1.00
3794;DHT22;1912;51.358;12.282;2023-05-10T15:26:02;14.90;1.00
3794;DHT22;1912;51.358;12.282;2023-05-10T15:28:28;14.80;1.00
3794;DHT22;1912;51.358;12.282;2023-05-10T15:30:55;14.70;1.00
3794;DHT22;1912;51.358;12.282;2023-05-10T15:33:21;14.60;1.00
3794;DHT22;1912;51.358;12.282;2023-05-10T15:35:47;14.50;1.00
3794;DHT22;1912;51.358;12.282;2023-05-10T15:38:12;14.50;1.00
3794;DHT22;1912;51.358;12.282;2023-05-10T15:40:38;14.60;1.00
3794;DHT22;1912;51.358;12.282;2023-05-10T15:43:04;14.50;1.00
3794;DHT22;1912;51.358;12.282;2023-05-10T15:45:30;14.50;1.00
3794;DHT22;1912;51.358;12.282;2023-05-10T15:47:56;14.40;1.00
3794;DHT22;1912;51.358;12.282;2023-05-10T15:50:22;14.40;1.00
3794;DHT22;1912;51.358;12.282;2023-05-10T15:52:48;14.40;1.00
3794;DHT22;1912;51.358;12.282;2023-05-10T15:55:14;14.40;1.00
3794;DHT22;1912;51.358;12.282;2023-05-10T15:57:41;14.50;1.00
3794;DHT22;1912;51.358;12.282;2023-05-10T16:00:10;14.50;1.00
3794;DHT22;1912;51.358;12.282;2023-05-10T16:02:37;14.60;1.00
3794;DHT22;1912;51.358;12.282;2023-05-10T16:05:04;14.50;1.00
3794;DHT22;1912;51.358;12.282;2023-05-10T16:07:29;14.60;1.00
3794;DHT22;1912;51.358;12.282;2023-05-10T16:09:55;14.60;1.00
3794;DHT22;1912;51.358;12.282;2023-05-10T16:12:21;14.60;1.00
3794;DHT22;1912;51.358;12.282;2023-05-10T16:14:47;14.60;1.00
3794;DHT22;1912;51.358;12.282;2023-05-10T16:17:12;14.60;1.00
3794;DHT22;1912;51.358;12.282;2023-05-10T16:19:39;14.60;1.00
3794;DHT22;1912;51.358;12.282;2023-05-10T16:22:06;14.60;1.00
3794;DHT22;1912;51.358;12.282;2023-05-10T16:24:32;14.70;1.00
3794;DHT22;1912;51.358;12.282;2023-05-10T16:26:57;14.70;1.00
3794;DHT22;1912;51.358;12.282;2023-05-10T16:29:23;14.70;1.00
3794;DHT22;1912;51.358;12.282;2023-05-10T16:31:48;14.80;1.00
3794;DHT22;1912;51.358;12.282;2023-05-10T16:34:14;14.80;1.00
3794;DHT22;1912;51.358;12.282;2023-05-10T16:36:40;14.70;1.00
3794;DHT22;1912;51.358;12.282;2023-05-10T16:39:06;14.80;1.00
3794;DHT22;1912;51.358;12.282;2023-05-10T16:41:33;14.70;1.00
3794;DHT22;1912;51.358;12.282;2023-05-10T16:43:59;14.80;1.00
3794;DHT22;1912;51.358;12.282;2023-05-10T16:46:25;14.80;1.00
3794;DHT22;1912;51.358;12.282;2023-05-10T16:48:51;14.90;1.00
3794;DHT22;1912;51.358;12.282;2023-05-10T16:51:17;14.80;1.00
3794;DHT22;1912;51.358;12.282;2023-05-10T16:53:42;14.90;1.00
3794;DHT22;1912;51.358;12.282;2023-05-10T16:56:08;14.90;1.00
3794;DHT22;1912;51.358;12.282;2023-05-10T16:58:34;14.90;1.00
3794;DHT22;1912;51.358;12.282;2023-05-10T17:01:00;14.90;1.00
3794;DHT22;1912;51.358;12.282;2023-05-10T17:03:26;14.90;1.00
3794;DHT22;1912;51.358;12.282;2023-05-10T17:05:51;15.00;1.00
3794;DHT22;1912;51.358;12.282;2023-05-10T17:08:17;15.00;1.00
3794;DHT22;1912;51.358;12.282;2023-05-10T17:10:43;15.00;1.00
3794;DHT22;1912;51.358;12.282;2023-05-10T17:13:08;14.90;1.00
3794;DHT22;1912;51.358;12.282;2023-05-10T17:15:35;14.90;1.00
3794;DHT22;1912;51.358;12.282;2023-05-10T17:18:02;15.00;1.00
3794;DHT22;1912;51.358;12.282;2023-05-10T17:20:28;15.00;1.00
3794;DHT22;1912;51.358;12.282;2023-05-10T17:22:54;14.90;1.00
3794;DHT22;1912;51.358;12.282;2023-05-10T17:25:20;15.00;1.00
3794;DHT22;1912;51.358;12.282;2023-05-10T17:27:45;14.90;1.00
3794;DHT22;1912;51.358;12.282;2023-05-10T17:30:11;14.90;1.00
3794;DHT22;1912;51.358;12.282;2023-05-10T17:32:37;14.90;1.00
3794;DHT22;1912;51.358;12.282;2023-05-10T17:35:04;14.90;1.00
3794;DHT22;1912;51.358;12.282;2023-05-10T17:37:30;14.90;1.00
3794;DHT22;1912;51.358;12.282;2023-05-10T17:39:58;14.90;1.00
3794;DHT22;1912;51.358;12.282;2023-05-10T17:42:24;14.90;1.00
3794;DHT22;1912;51.358;12.282;2023-05-10T17:44:49;14.90;1.00
3794;DHT22;1912;51.358;12.282;2023-05-10T17:47:16;14.90;1.00
3794;DHT22;1912;51.358;12.282;2023-05-10T17:49:42;14.90;1.00
3794;DHT22;1912;51.358;12.282;2023-05-10T17:52:08;14.80;1.00
3794;DHT22;1912;51.358;12.282;2023-05-10T17:54:34;14.80;1.00
3794;DHT22;1912;51.358;12.282;2023-05-10T17:56:59;14.80;1.00
3794;DHT22;1912;51.358;12.282;2023-05-10T17:59:25;14.80;1.00
3794;DHT22;1912;51.358;12.282;2023-05-10T18:01:51;14.80;1.00
3794;DHT22;1912;51.358;12.282;2023-05-10T18:04:17;14.80;1.00
3794;DHT22;1912;51.358;12.282;2023-05-10T18:06:42;14.80;1.00
3794;DHT22;1912;51.358;12.282;2023-05-10T18:09:08;14.80;1.00
3794;DHT22;1912;51.358;12.282;2023-05-10T18:11:34;14.80;1.00
3794;DHT22;1912;51.358;12.282;2023-05-10T18:14:01;14.70;1.00
3794;DHT22;1912;51.358;12.282;2023-05-10T18:16:26;14.70;1.00
3794;DHT22;1912;51.358;12.282;2023-05-10T18:18:52;14.70;1.00
3794;DHT22;1912;51.358;12.282;2023-05-10T18:21:17;14.60;1.00
3794;DHT22;1912;51.358;12.282;2023-05-10T18:23:43;14.70;1.00
3794;DHT22;1912;51.358;12.282;2023-05-10T18:26:09;14.80;1.00
3794;DHT22;1912;51.358;12.282;2023-05-10T18:28:35;14.80;1.00
3794;DHT22;1912;51.358;12.282;2023-05-10T18:31:01;14.70;1.00
3794;DHT22;1912;51.358;12.282;2023-05-10T18:33:27;14.70;1.00
3794;DHT22;1912;51.358;12.282;2023-05-10T18:35:53;14.60;1.00
3794;DHT22;1912;51.358;12.282;2023-05-10T18:38:19;14.60;1.00
3794;DHT22;1912;51.358;12.282;2023-05-10T18:40:44;14.50;1.00
3794;DHT22;1912;51.358;12.282;2023-05-10T18:43:10;14.50;1.00
3794;DHT22;1912;51.358;12.282;2023-05-10T18:45:36;14.40;1.00
3794;DHT22;1912;51.358;12.282;2023-05-10T18:48:03;14.30;1.00
3794;DHT22;1912;51.358;12.282;2023-05-10T18:50:29;14.30;1.00
3794;DHT22;1912;51.358;12.282;2023-05-10T18:52:54;14.40;1.00
3794;DHT22;1912;51.358;12.282;2023-05-10T18:55:21;14.30;1.00
3794;DHT22;1912;51.358;12.282;2023-05-10T18:57:49;14.30;1.00
3794;DHT22;1912;51.358;12.282;2023-05-10T19:00:15;14.30;1.00
3794;DHT22;1912;51.358;12.282;2023-05-10T19:02:43;14.30;1.00
3794;DHT22;1912;51.358;12.282;2023-05-10T19:05:09;14.30;1.00
3794;DHT22;1912;51.358;12.282;2023-05-10T19:07:35;14.30;1.00
3794;DHT22;1912;51.358;12.282;2023-05-10T19:10:01;14.30;1.00
3794;DHT22;1912;51.358;12.282;2023-05-10T19:12:27;14.30;1.00
3794;DHT22;1912;51.358;12.282;2023-05-10T19:14:53;14.30;1.00
3794;DHT22;1912;51.358;12.282;2023-05-10T19:17:18;14.30;1.00
3794;DHT22;1912;51.358;12.282;2023-05-10T19:19:44;14.30;1.00
3794;DHT22;1912;51.358;12.282;2023-05-10T19:22:10;14.30;1.00
3794;DHT22;1912;51.358;12.282;2023-05-10T19:24:36;14.30;1.00
3794;DHT22;1912;51.358;12.282;2023-05-10T19:27:01;14.40;1.00
3794;DHT22;1912;51.358;12.282;2023-05-10T19:29:27;14.40;1.00
3794;DHT22;1912;51.358;12.282;2023-05-10T19:31:53;14.40;1.00
3794;DHT22;1912;51.358;12.282;2023-05-10T19:34:19;14.40;1.00
3794;DHT22;1912;51.358;12.282;2023-05-10T19:36:45;14.40;1.00
3794;DHT22;1912;51.358;12.282;2023-05-10T19:39:11;14.40;1.00
3794;DHT22;1912;51.358;12.282;2023-05-10T19:41:37;14.30;1.00
3794;DHT22;1912;51.358;12.282;2023-05-10T19:44:03;14.30;1.00
3794;DHT22;1912;51.358;12.282;2023-05-10T19:46:28;14.30;1.00
3794;DHT22;1912;51.358;12.282;2023-05-10T19:48:55;14.30;1.00
3794;DHT22;1912;51.358;12.282;2023-05-10T19:51:21;14.30;1.00
3794;DHT22;1912;51.358;12.282;2023-05-10T19:53:46;14.40;1.00
3794;DHT22;1912;51.358;12.282;2023-05-10T19:56:12;14.40;1.00
3794;DHT22;1912;51.358;12.282;2023-05-10T19:58:38;14.40;1.00
3794;DHT22;1912;51.358;12.282;2023-05-10T20:01:04;14.40;1.00
3794;DHT22;1912;51.358;12.282;2023-05-10T20:03:32;14.40;1.00
3794;DHT22;1912;51.358;12.282;2023-05-10T20:05:59;14.40;1.00
3794;DHT22;1912;51.358;12.282;2023-05-10T20:08:25;14.40;1.00